sensor_id;sensor_type;location;lat;lon;timestamp;temperature;humidity
38798;SHT11;24546;52.240;16.826;2022-08-18T00:04:39;24.20;98.00
38798;SHT11;24546;52.240;16.826;2022-08-18T00:09:42;24.10;98.90
38798;SHT11;24546;52.240;16.826;2022-08-18T00:14:44;24.10;99.20
38798;SHT11;24546;52.240;16.826;2022-08-18T00:19:45;24.00;99.20
38798;SHT11;24546;52.240;16.826;2022-08-18T00:24:50;24.00;99.60
38798;SHT11;24546;52.240;16.826;2022-08-18T00:29:53;23.90;99.90
38798;SHT11;24546;52.240;16.826;2022-08-18T00:34:54;23.80;99.90
38798;SHT11;24546;52.240;16.826;2022-08-18T00:39:55;23.80;99.90
38798;SHT11;24546;52.240;16.826;2022-08-18T00:45:02;23.80;99.90
38798;SHT11;24546;52.240;16.826;2022-08-18T00:50:05;23.80;99.90
38798;SHT11;24546;52.240;16.826;2022-08-18T00:55:07;23.80;99.90
38798;SHT11;24546;52.240;16.826;2022-08-18T01:00:08;23.70;99.90
38798;SHT11;24546;52.240;16.826;2022-08-18T01:10:33;23.70;99.90
38798;SHT11;24546;52.240;16.826;2022-08-18T01:15:35;23.70;99.90
38798;SHT11;24546;52.240;16.826;2022-08-18T01:26:29;23.70;99.90
38798;SHT11;24546;52.240;16.826;2022-08-18T01:31:35;23.70;99.90
38798;SHT11;24546;52.240;16.826;2022-08-18T01:36:39;23.60;99.90
38798;SHT11;24546;52.240;16.826;2022-08-18T01:41:40;23.60;99.90
38798;SHT11;24546;52.240;16.826;2022-08-18T01:46:41;23.60;99.90
38798;SHT11;24546;52.240;16.826;2022-08-18T01:51:42;23.60;99.90
38798;SHT11;24546;52.240;16.826;2022-08-18T01:56:43;23.50;99.90
38798;SHT11;24546;52.240;16.826;2022-08-18T02:01:45;23.50;99.90
38798;SHT11;24546;52.240;16.826;2022-08-18T02:06:47;23.50;99.90
38798;SHT11;24546;52.240;16.826;2022-08-18T02:11:48;23.40;99.90
38798;SHT11;24546;52.240;16.826;2022-08-18T02:16:49;23.40;99.90
38798;SHT11;24546;52.240;16.826;2022-08-18T02:21:51;23.40;99.90
38798;SHT11;24546;52.240;16.826;2022-08-18T02:26:52;23.40;99.90
38798;SHT11;24546;52.240;16.826;2022-08-18T02:31:53;23.30;99.90
38798;SHT11;24546;52.240;16.826;2022-08-18T02:36:55;23.20;99.90
38798;SHT11;24546;52.240;16.826;2022-08-18T02:41:55;23.10;99.90
38798;SHT11;24546;52.240;16.826;2022-08-18T02:46:57;23.10;99.90
38798;SHT11;24546;52.240;16.826;2022-08-18T02:51:58;23.10;99.90
38798;SHT11;24546;52.240;16.826;2022-08-18T02:56:58;23.00;99.90
38798;SHT11;24546;52.240;16.826;2022-08-18T03:01:59;23.10;99.90
38798;SHT11;24546;52.240;16.826;2022-08-18T03:07:03;23.00;99.90
38798;SHT11;24546;52.240;16.826;2022-08-18T03:12:04;23.00;99.90
38798;SHT11;24546;52.240;16.826;2022-08-18T03:17:08;23.00;99.90
38798;SHT11;24546;52.240;16.826;2022-08-18T03:22:09;23.10;99.90
38798;SHT11;24546;52.240;16.826;2022-08-18T03:27:10;23.10;99.90
38798;SHT11;24546;52.240;16.826;2022-08-18T03:32:11;23.10;99.90
38798;SHT11;24546;52.240;16.826;2022-08-18T03:37:13;23.10;99.90
38798;SHT11;24546;52.240;16.826;2022-08-18T03:42:15;23.10;99.90
38798;SHT11;24546;52.240;16.826;2022-08-18T03:47:17;23.10;99.90
38798;SHT11;24546;52.240;16.826;2022-08-18T03:52:18;23.00;99.90
38798;SHT11;24546;52.240;16.826;2022-08-18T03:57:19;23.00;99.90
38798;SHT11;24546;52.240;16.826;2022-08-18T04:02:20;23.10;99.90
38798;SHT11;24546;52.240;16.826;2022-08-18T04:07:21;23.10;99.90
38798;SHT11;24546;52.240;16.826;2022-08-18T04:12:22;23.10;99.90
38798;SHT11;24546;52.240;16.826;2022-08-18T04:17:23;23.10;99.90
38798;SHT11;24546;52.240;16.826;2022-08-18T04:22:24;23.10;99.90
38798;SHT11;24546;52.240;16.826;2022-08-18T04:27:27;23.10;99.90
38798;SHT11;24546;52.240;16.826;2022-08-18T04:32:29;23.20;99.90
38798;SHT11;24546;52.240;16.826;2022-08-18T04:37:30;23.30;99.90
38798;SHT11;24546;52.240;16.826;2022-08-18T04:42:32;23.30;99.90
38798;SHT11;24546;52.240;16.826;2022-08-18T04:47:33;23.30;99.90
38798;SHT11;24546;52.240;16.826;2022-08-18T04:52:36;23.60;99.90
38798;SHT11;24546;52.240;16.826;2022-08-18T04:57:56;23.70;99.90
38798;SHT11;24546;52.240;16.826;2022-08-18T05:02:58;23.80;99.90
38798;SHT11;24546;52.240;16.826;2022-08-18T05:07:59;23.90;99.90
38798;SHT11;24546;52.240;16.826;2022-08-18T05:13:00;24.30;99.90
38798;SHT11;24546;52.240;16.826;2022-08-18T05:18:01;24.30;99.90
38798;SHT11;24546;52.240;16.826;2022-08-18T05:23:04;24.60;99.90
38798;SHT11;24546;52.240;16.826;2022-08-18T05:28:05;24.80;99.90
38798;SHT11;24546;52.240;16.826;2022-08-18T05:33:07;24.90;99.90
38798;SHT11;24546;52.240;16.826;2022-08-18T05:38:25;25.10;99.90
38798;SHT11;24546;52.240;16.826;2022-08-18T05:43:28;25.30;99.90
38798;SHT11;24546;52.240;16.826;2022-08-18T05:48:29;25.50;99.90
38798;SHT11;24546;52.240;16.826;2022-08-18T05:53:30;25.60;99.90
38798;SHT11;24546;52.240;16.826;2022-08-18T05:58:52;25.80;99.90
38798;SHT11;24546;52.240;16.826;2022-08-18T06:04:00;26.00;99.90
38798;SHT11;24546;52.240;16.826;2022-08-18T06:14:15;26.40;99.90
38798;SHT11;24546;52.240;16.826;2022-08-18T06:19:25;26.50;99.90
38798;SHT11;24546;52.240;16.826;2022-08-18T06:24:43;26.70;99.90
38798;SHT11;24546;52.240;16.826;2022-08-18T06:30:06;26.90;99.90
38798;SHT11;24546;52.240;16.826;2022-08-18T06:35:28;27.10;99.90
38798;SHT11;24546;52.240;16.826;2022-08-18T06:40:32;27.30;99.90
38798;SHT11;24546;52.240;16.826;2022-08-18T06:45:36;27.30;99.90
38798;SHT11;24546;52.240;16.826;2022-08-18T06:50:52;27.60;99.90
38798;SHT11;24546;52.240;16.826;2022-08-18T06:55:53;27.80;99.90
38798;SHT11;24546;52.240;16.826;2022-08-18T07:00:58;27.90;99.90
38798;SHT11;24546;52.240;16.826;2022-08-18T07:06:23;28.10;99.80
38798;SHT11;24546;52.240;16.826;2022-08-18T07:11:27;28.30;99.90
38798;SHT11;24546;52.240;16.826;2022-08-18T07:16:33;28.60;99.90
38798;SHT11;24546;52.240;16.826;2022-08-18T07:21:36;29.10;99.00
38798;SHT11;24546;52.240;16.826;2022-08-18T07:32:13;29.60;98.50
38798;SHT11;24546;52.240;16.826;2022-08-18T07:42:59;30.50;98.40
38798;SHT11;24546;52.240;16.826;2022-08-18T07:48:18;30.80;95.90
38798;SHT11;24546;52.240;16.826;2022-08-18T07:59:03;31.70;95.40
38798;SHT11;24546;52.240;16.826;2022-08-18T08:04:35;32.10;95.30
38798;SHT11;24546;52.240;16.826;2022-08-18T08:14:48;32.90;93.40
38798;SHT11;24546;52.240;16.826;2022-08-18T08:25:25;33.40;93.10
38798;SHT11;24546;52.240;16.826;2022-08-18T08:30:29;33.60;92.20
38798;SHT11;24546;52.240;16.826;2022-08-18T08:36:24;34.00;91.10
38798;SHT11;24546;52.240;16.826;2022-08-18T08:41:10;34.10;90.10
38798;SHT11;24546;52.240;16.826;2022-08-18T08:46:24;34.20;92.30
38798;SHT11;24546;52.240;16.826;2022-08-18T08:51:43;34.40;91.10
38798;SHT11;24546;52.240;16.826;2022-08-18T08:56:48;34.60;88.00
38798;SHT11;24546;52.240;16.826;2022-08-18T09:22:45;35.60;83.30
38798;SHT11;24546;52.240;16.826;2022-08-18T09:27:47;35.60;87.50
38798;SHT11;24546;52.240;16.826;2022-08-18T09:32:55;35.70;82.50
38798;SHT11;24546;52.240;16.826;2022-08-18T09:43:37;35.60;82.00
38798;SHT11;24546;52.240;16.826;2022-08-18T09:48:39;35.70;80.40
38798;SHT11;24546;52.240;16.826;2022-08-18T09:58:56;35.20;78.20
38798;SHT11;24546;52.240;16.826;2022-08-18T10:04:26;34.90;77.60
38798;SHT11;24546;52.240;16.826;2022-08-18T10:25:49;36.20;75.50
38798;SHT11;24546;52.240;16.826;2022-08-18T10:31:04;36.10;75.80
38798;SHT11;24546;52.240;16.826;2022-08-18T10:36:06;36.60;76.90
38798;SHT11;24546;52.240;16.826;2022-08-18T10:41:23;36.50;75.30
38798;SHT11;24546;52.240;16.826;2022-08-18T10:46:30;36.60;81.30
38798;SHT11;24546;52.240;16.826;2022-08-18T10:56:45;36.40;75.30
38798;SHT11;24546;52.240;16.826;2022-08-18T11:02:00;36.40;74.30
38798;SHT11;24546;52.240;16.826;2022-08-18T11:07:14;36.00;73.00
38798;SHT11;24546;52.240;16.826;2022-08-18T11:13:06;36.20;74.80
38798;SHT11;24546;52.240;16.826;2022-08-18T11:23:20;36.30;71.80
38798;SHT11;24546;52.240;16.826;2022-08-18T11:28:22;36.10;73.00
38798;SHT11;24546;52.240;16.826;2022-08-18T11:33:28;36.60;73.30
38798;SHT11;24546;52.240;16.826;2022-08-18T11:38:29;36.90;72.50
38798;SHT11;24546;52.240;16.826;2022-08-18T11:43:33;36.80;71.20
38798;SHT11;24546;52.240;16.826;2022-08-18T11:48:42;36.90;73.60
38798;SHT11;24546;52.240;16.826;2022-08-18T11:59:00;36.60;71.90
38798;SHT11;24546;52.240;16.826;2022-08-18T12:04:26;36.30;70.20
38798;SHT11;24546;52.240;16.826;2022-08-18T12:09:41;36.10;70.00
38798;SHT11;24546;52.240;16.826;2022-08-18T12:20:03;36.50;69.70
38798;SHT11;24546;52.240;16.826;2022-08-18T12:25:09;36.80;71.70
38798;SHT11;24546;52.240;16.826;2022-08-18T12:30:11;37.10;70.70
38798;SHT11;24546;52.240;16.826;2022-08-18T12:35:12;36.70;68.50
38798;SHT11;24546;52.240;16.826;2022-08-18T12:40:13;36.30;71.90
38798;SHT11;24546;52.240;16.826;2022-08-18T12:45:14;35.90;70.20
38798;SHT11;24546;52.240;16.826;2022-08-18T12:50:15;35.80;73.20
38798;SHT11;24546;52.240;16.826;2022-08-18T12:55:15;35.50;69.80
38798;SHT11;24546;52.240;16.826;2022-08-18T13:00:18;35.50;74.00
38798;SHT11;24546;52.240;16.826;2022-08-18T13:05:20;35.80;73.70
38798;SHT11;24546;52.240;16.826;2022-08-18T13:10:21;35.90;70.60
38798;SHT11;24546;52.240;16.826;2022-08-18T13:15:22;35.80;69.90
38798;SHT11;24546;52.240;16.826;2022-08-18T13:20:23;35.90;69.30
38798;SHT11;24546;52.240;16.826;2022-08-18T13:25:24;35.90;70.50
38798;SHT11;24546;52.240;16.826;2022-08-18T13:30:26;36.20;73.00
38798;SHT11;24546;52.240;16.826;2022-08-18T13:35:28;36.40;70.80
38798;SHT11;24546;52.240;16.826;2022-08-18T13:40:29;36.50;67.50
38798;SHT11;24546;52.240;16.826;2022-08-18T13:45:30;36.60;73.30
38798;SHT11;24546;52.240;16.826;2022-08-18T13:50:31;36.70;70.10
38798;SHT11;24546;52.240;16.826;2022-08-18T13:55:32;36.70;70.60
38798;SHT11;24546;52.240;16.826;2022-08-18T14:00:33;36.40;68.40
38798;SHT11;24546;52.240;16.826;2022-08-18T14:05:34;36.10;71.00
38798;SHT11;24546;52.240;16.826;2022-08-18T14:10:35;35.90;70.40
38798;SHT11;24546;52.240;16.826;2022-08-18T14:15:36;35.80;71.70
38798;SHT11;24546;52.240;16.826;2022-08-18T14:20:39;35.60;71.50
38798;SHT11;24546;52.240;16.826;2022-08-18T14:25:58;35.50;73.50
38798;SHT11;24546;52.240;16.826;2022-08-18T14:31:18;35.60;70.80
38798;SHT11;24546;52.240;16.826;2022-08-18T14:36:20;35.70;69.20
38798;SHT11;24546;52.240;16.826;2022-08-18T14:41:20;35.50;69.40
38798;SHT11;24546;52.240;16.826;2022-08-18T14:46:22;35.00;67.90
38798;SHT11;24546;52.240;16.826;2022-08-18T14:51:24;35.30;71.80
38798;SHT11;24546;52.240;16.826;2022-08-18T14:56:26;35.40;70.00
38798;SHT11;24546;52.240;16.826;2022-08-18T15:01:28;35.50;71.00
38798;SHT11;24546;52.240;16.826;2022-08-18T15:06:29;35.60;68.90
38798;SHT11;24546;52.240;16.826;2022-08-18T15:11:30;35.00;69.80
38798;SHT11;24546;52.240;16.826;2022-08-18T15:16:33;34.40;71.90
38798;SHT11;24546;52.240;16.826;2022-08-18T15:21:34;34.10;73.80
38798;SHT11;24546;52.240;16.826;2022-08-18T15:26:55;34.10;72.40
38798;SHT11;24546;52.240;16.826;2022-08-18T15:31:57;34.10;72.10
38798;SHT11;24546;52.240;16.826;2022-08-18T15:36:58;33.80;75.40
38798;SHT11;24546;52.240;16.826;2022-08-18T15:41:59;33.90;75.10
38798;SHT11;24546;52.240;16.826;2022-08-18T15:47:00;33.70;71.40
38798;SHT11;24546;52.240;16.826;2022-08-18T15:52:04;33.40;72.50
38798;SHT11;24546;52.240;16.826;2022-08-18T15:57:06;33.60;73.20
38798;SHT11;24546;52.240;16.826;2022-08-18T16:02:08;33.60;70.50
38798;SHT11;24546;52.240;16.826;2022-08-18T16:07:09;33.30;70.00
38798;SHT11;24546;52.240;16.826;2022-08-18T16:12:10;33.20;72.40
38798;SHT11;24546;52.240;16.826;2022-08-18T16:17:11;33.00;70.90
38798;SHT11;24546;52.240;16.826;2022-08-18T16:22:12;33.00;73.10
38798;SHT11;24546;52.240;16.826;2022-08-18T16:27:13;32.80;70.70
38798;SHT11;24546;52.240;16.826;2022-08-18T16:32:14;32.70;71.40
38798;SHT11;24546;52.240;16.826;2022-08-18T16:37:18;32.60;70.20
38798;SHT11;24546;52.240;16.826;2022-08-18T16:42:20;32.50;72.80
38798;SHT11;24546;52.240;16.826;2022-08-18T16:47:21;32.40;72.60
38798;SHT11;24546;52.240;16.826;2022-08-18T16:52:21;32.30;73.30
38798;SHT11;24546;52.240;16.826;2022-08-18T16:57:22;32.20;73.50
38798;SHT11;24546;52.240;16.826;2022-08-18T17:02:43;32.20;74.30
38798;SHT11;24546;52.240;16.826;2022-08-18T17:08:03;32.10;73.90
38798;SHT11;24546;52.240;16.826;2022-08-18T17:13:04;31.90;75.00
38798;SHT11;24546;52.240;16.826;2022-08-18T17:18:05;31.90;74.80
38798;SHT11;24546;52.240;16.826;2022-08-18T17:23:07;31.90;75.90
38798;SHT11;24546;52.240;16.826;2022-08-18T17:28:08;31.80;75.00
38798;SHT11;24546;52.240;16.826;2022-08-18T17:33:15;31.70;76.40
38798;SHT11;24546;52.240;16.826;2022-08-18T17:38:25;31.60;76.40
38798;SHT11;24546;52.240;16.826;2022-08-18T17:43:31;31.50;75.80
38798;SHT11;24546;52.240;16.826;2022-08-18T17:48:48;31.40;77.90
38798;SHT11;24546;52.240;16.826;2022-08-18T17:53:51;31.20;77.70
38798;SHT11;24546;52.240;16.826;2022-08-18T17:58:59;31.00;76.40
38798;SHT11;24546;52.240;16.826;2022-08-18T18:04:04;30.90;76.70
38798;SHT11;24546;52.240;16.826;2022-08-18T18:09:28;30.80;78.30
38798;SHT11;24546;52.240;16.826;2022-08-18T18:14:36;30.60;78.30
38798;SHT11;24546;52.240;16.826;2022-08-18T18:19:39;30.50;77.70
38798;SHT11;24546;52.240;16.826;2022-08-18T18:24:49;30.40;79.30
38798;SHT11;24546;52.240;16.826;2022-08-18T18:35:21;30.10;79.90
38798;SHT11;24546;52.240;16.826;2022-08-18T18:40:33;30.00;80.20
38798;SHT11;24546;52.240;16.826;2022-08-18T18:45:34;29.90;83.40
38798;SHT11;24546;52.240;16.826;2022-08-18T18:55:52;29.60;85.60
38798;SHT11;24546;52.240;16.826;2022-08-18T19:00:58;29.40;85.80
38798;SHT11;24546;52.240;16.826;2022-08-18T19:06:19;29.30;87.50
38798;SHT11;24546;52.240;16.826;2022-08-18T19:22:15;28.80;90.00
38798;SHT11;24546;52.240;16.826;2022-08-18T19:27:32;28.60;88.60
38798;SHT11;24546;52.240;16.826;2022-08-18T19:32:42;28.50;87.80
38798;SHT11;24546;52.240;16.826;2022-08-18T19:43:07;28.40;86.90
38798;SHT11;24546;52.240;16.826;2022-08-18T19:48:37;28.40;87.40
38798;SHT11;24546;52.240;16.826;2022-08-18T19:54:02;28.30;87.40
38798;SHT11;24546;52.240;16.826;2022-08-18T20:15:26;28.10;87.20
38798;SHT11;24546;52.240;16.826;2022-08-18T20:20:33;28.10;87.50
38798;SHT11;24546;52.240;16.826;2022-08-18T20:25:43;28.10;87.80
38798;SHT11;24546;52.240;16.826;2022-08-18T20:36:23;28.10;89.30
38798;SHT11;24546;52.240;16.826;2022-08-18T20:51:54;27.60;90.40
38798;SHT11;24546;52.240;16.826;2022-08-18T20:56:59;27.60;90.30
38798;SHT11;24546;52.240;16.826;2022-08-18T21:02:24;27.60;90.80
38798;SHT11;24546;52.240;16.826;2022-08-18T21:07:36;27.50;90.80
38798;SHT11;24546;52.240;16.826;2022-08-18T21:12:37;27.50;90.90
38798;SHT11;24546;52.240;16.826;2022-08-18T21:17:38;27.50;90.60
38798;SHT11;24546;52.240;16.826;2022-08-18T21:22:40;27.60;90.80
38798;SHT11;24546;52.240;16.826;2022-08-18T21:27:44;27.50;90.80
38798;SHT11;24546;52.240;16.826;2022-08-18T21:32:45;27.30;90.70
38798;SHT11;24546;52.240;16.826;2022-08-18T21:38:13;27.30;90.90
38798;SHT11;24546;52.240;16.826;2022-08-18T21:43:44;27.20;91.10
38798;SHT11;24546;52.240;16.826;2022-08-18T21:48:49;27.00;91.40
38798;SHT11;24546;52.240;16.826;2022-08-18T21:53:52;27.00;91.50
38798;SHT11;24546;52.240;16.826;2022-08-18T21:59:14;27.00;91.50
38798;SHT11;24546;52.240;16.826;2022-08-18T22:04:29;26.90;91.60
38798;SHT11;24546;52.240;16.826;2022-08-18T22:09:34;26.90;91.60
38798;SHT11;24546;52.240;16.826;2022-08-18T22:15:40;26.90;91.80
38798;SHT11;24546;52.240;16.826;2022-08-18T22:25:51;26.70;92.20
38798;SHT11;24546;52.240;16.826;2022-08-18T22:30:54;26.60;92.20
38798;SHT11;24546;52.240;16.826;2022-08-18T22:35:55;26.50;92.40
38798;SHT11;24546;52.240;16.826;2022-08-18T22:40:58;26.40;92.40
38798;SHT11;24546;52.240;16.826;2022-08-18T22:46:00;26.40;92.60
38798;SHT11;24546;52.240;16.826;2022-08-18T22:51:01;26.20;92.90
38798;SHT11;24546;52.240;16.826;2022-08-18T22:56:03;26.30;93.00
38798;SHT11;24546;52.240;16.826;2022-08-18T23:01:04;26.30;92.80
38798;SHT11;24546;52.240;16.826;2022-08-18T23:06:06;26.30;92.90
38798;SHT11;24546;52.240;16.826;2022-08-18T23:11:08;26.20;93.20
38798;SHT11;24546;52.240;16.826;2022-08-18T23:16:09;26.20;93.50
38798;SHT11;24546;52.240;16.826;2022-08-18T23:21:10;26.10;93.40
38798;SHT11;24546;52.240;16.826;2022-08-18T23:26:11;25.90;93.60
38798;SHT11;24546;52.240;16.826;2022-08-18T23:31:12;25.90;93.70
38798;SHT11;24546;52.240;16.826;2022-08-18T23:36:13;25.90;93.80
38798;SHT11;24546;52.240;16.826;2022-08-18T23:41:14;25.80;94.00
38798;SHT11;24546;52.240;16.826;2022-08-18T23:46:24;25.60;94.20
38798;SHT11;24546;52.240;16.826;2022-08-18T23:51:30;25.70;94.40
38798;SHT11;24546;52.240;16.826;2022-08-18T23:56:33;25.70;94.40
